Time;durP1;ratioP1;P1;durP2;ratioP2;P2;SDS_P1;SDS_P2;PMS_P1;PMS_P2;Temp;Humidity;BMP_temperature;BMP_pressure;BME280_temperature;BME280_humidity;BME280_pressure;Samples;Min_cycle;Max_cycle;Signal;HPM_P1;HPM_P2
2022/08/04 00:00:13;;;;;;;8.85;7.92;;;;;;;20.75;78.46;99394.70;1715478;83;21550;-46
2022/08/04 00:02:49;;;;;;;;;;;;;;;20.77;78.55;99399.17;1717835;83;21017;-46
2022/08/04 00:05:41;;;;;;;13.90;8.33;;;;;;;20.80;78.53;99405.23;1702602;84;21150;-46
2022/08/04 00:08:25;;;;;;;9.48;8.53;;;;;;;20.73;78.80;99402.61;1706450;83;21057;-46
2022/08/04 00:10:55;;;;;;;10.50;8.63;;;;;;;20.76;78.73;99403.94;1721136;83;21028;-46
2022/08/04 00:13:23;;;;;;;9.55;8.50;;;;;;;20.78;78.70;99405.64;1721468;83;20975;-46
2022/08/04 00:16:00;;;;;;;9.58;8.58;;;;;;;20.80;78.67;99401.09;1721728;83;21674;-46
2022/08/04 00:18:31;;;;;;;9.53;8.53;;;;;;;20.81;78.61;99394.39;1720503;83;23165;-46
2022/08/04 00:20:59;;;;;;;12.88;8.30;;;;;;;20.81;78.62;99391.03;1721086;83;20986;-46
2022/08/04 00:23:27;;;;;;;9.73;8.70;;;;;;;20.82;78.58;99394.53;1721514;83;20986;-46
2022/08/04 00:25:54;;;;;;;10.40;8.38;;;;;;;20.84;78.63;99393.52;1721428;83;21050;-46
2022/08/04 00:28:21;;;;;;;12.20;8.70;;;;;;;20.88;78.59;99396.97;1721333;83;21564;-46
2022/08/04 00:30:48;;;;;;;9.38;8.35;;;;;;;20.87;78.50;99402.30;1721248;83;21133;-46
2022/08/04 00:33:18;;;;;;;9.83;8.83;;;;;;;20.85;78.48;99399.21;1721257;83;20982;-46
2022/08/04 00:35:49;;;;;;;9.85;8.45;;;;;;;20.83;78.65;99395.50;1721414;83;21540;-46
2022/08/04 00:38:18;;;;;;;9.38;8.48;;;;;;;20.81;78.76;99393.79;1721110;83;21003;-46
2022/08/04 00:41:08;;;;;;;9.20;8.05;;;;;;;20.83;78.86;99391.96;1721340;83;21059;-46
2022/08/04 00:43:45;;;;;;;9.25;8.35;;;;;;;20.86;78.79;99391.73;1721031;83;21293;-46
2022/08/04 00:46:34;;;;;;;9.43;8.45;;;;;;;20.85;78.72;99388.19;1719853;83;21037;-46
2022/08/04 00:49:28;;;;;;;11.00;8.88;;;;;;;20.83;78.67;99387.83;1721084;83;20994;-46
2022/08/04 00:52:20;;;;;;;9.55;8.55;;;;;;;20.79;78.69;99398.94;1721040;83;21553;-46
2022/08/04 00:55:14;;;;;;;9.70;8.70;;;;;;;20.73;78.93;99403.98;1721255;83;21019;-46
2022/08/04 00:58:28;;;;;;;8.55;7.65;;;;;;;20.70;79.06;99407.01;1721143;83;21141;-46
2022/08/04 01:01:02;;;;;;;13.43;7.80;;;;;;;20.68;79.16;99408.63;1721103;83;21014;-46
2022/08/04 01:04:05;;;;;;;9.65;7.87;;;;;;;20.68;79.26;99410.00;1720400;83;21018;-46
2022/08/04 01:06:53;;;;;;;12.13;8.73;;;;;;;20.68;79.28;99419.05;1707240;84;20949;-46
2022/08/04 01:10:00;;;;;;;11.95;8.15;;;;;;;20.69;79.30;99415.69;1695472;84;21527;-46
2022/08/04 01:12:54;;;;;;;11.25;8.53;;;;;;;20.70;79.32;99420.78;1695167;84;21136;-46
2022/08/04 01:15:29;;;;;;;9.90;8.90;;;;;;;20.71;79.32;99417.43;1694715;84;21057;-46
2022/08/04 01:18:04;;;;;;;9.95;8.40;;;;;;;20.71;79.09;99422.94;1694474;84;21551;-46
2022/08/04 01:20:36;;;;;;;10.08;8.38;;;;;;;20.65;79.03;99418.53;1695199;84;21052;-46
2022/08/04 01:23:34;;;;;;;11.78;9.03;;;;;;;20.65;79.15;99424.64;1694112;84;21037;-46
2022/08/04 01:26:21;;;;;;;10.15;8.98;;;;;;;20.67;79.29;99422.24;1694925;83;21239;-46
2022/08/04 01:29:08;;;;;;;11.57;8.60;;;;;;;20.69;79.25;99427.49;1694970;84;21519;-46
2022/08/04 01:32:10;;;;;;;9.60;8.63;;;;;;;20.69;79.02;99432.22;1695087;84;21610;-46
2022/08/04 01:34:52;;;;;;;9.40;8.50;;;;;;;20.66;79.04;99423.44;1693467;84;21013;-46
2022/08/04 01:37:47;;;;;;;10.35;9.15;;;;;;;20.65;79.08;99423.27;1695028;84;21076;-46
2022/08/04 01:40:15;;;;;;;12.20;8.40;;;;;;;20.65;79.13;99422.66;1694851;84;21248;-46
2022/08/04 01:42:44;;;;;;;10.32;8.68;;;;;;;20.66;79.04;99422.06;1695162;84;21037;-46
2022/08/04 01:45:12;;;;;;;11.67;8.80;;;;;;;20.66;79.05;99413.80;1695343;84;21100;-46
2022/08/04 01:47:51;;;;;;;11.43;8.40;;;;;;;20.69;79.11;99418.45;1695273;84;21060;-46
2022/08/04 01:50:19;;;;;;;11.10;8.78;;;;;;;20.72;79.01;99413.48;1694333;84;21689;-46
2022/08/04 01:52:46;;;;;;;10.75;8.28;;;;;;;20.73;78.90;99417.77;1695486;84;21933;-46
2022/08/04 01:55:14;;;;;;;10.00;9.10;;;;;;;20.73;78.88;99410.88;1695160;84;21037;-46
2022/08/04 01:57:51;;;;;;;10.10;9.00;;;;;;;20.73;78.83;99416.39;1695491;84;21084;-46
2022/08/04 02:00:25;;;;;;;14.68;8.88;;;;;;;20.72;78.90;99419.74;1695040;84;21053;-46
2022/08/04 02:02:53;;;;;;;9.43;8.53;;;;;;;20.73;79.03;99416.39;1695058;84;21070;-46
2022/08/04 02:05:22;;;;;;;10.18;8.18;;;;;;;20.76;78.94;99416.93;1695084;83;21128;-46
2022/08/04 02:08:05;;;;;;;13.87;8.57;;;;;;;20.77;78.89;99415.70;1695221;84;21061;-46
2022/08/04 02:10:51;;;;;;;12.55;8.60;;;;;;;20.80;78.85;99417.62;1694898;84;21554;-46
2022/08/04 02:13:32;;;;;;;10.13;9.13;;;;;;;20.85;78.83;99410.83;1693745;83;21069;-46
2022/08/04 02:16:15;;;;;;;10.43;8.25;;;;;;;20.86;78.58;99417.30;1695148;84;21045;-46
2022/08/04 02:18:49;;;;;;;11.65;8.58;;;;;;;20.87;78.50;99420.21;1695096;84;21566;-46
2022/08/04 02:21:18;;;;;;;10.00;8.95;;;;;;;20.88;78.45;99417.64;1695093;84;20993;-46
2022/08/04 02:23:48;;;;;;;10.72;8.83;;;;;;;20.87;78.25;99418.83;1695053;84;21044;-46
2022/08/04 02:26:20;;;;;;;11.93;8.80;;;;;;;20.85;78.32;99414.97;1695129;84;21069;-46
2022/08/04 02:28:51;;;;;;;9.43;8.53;;;;;;;20.85;78.41;99421.26;1695055;84;21628;-47
2022/08/04 02:32:02;;;;;;;10.18;8.80;;;;;;;20.87;78.36;99418.83;1695104;84;21258;-46
2022/08/04 02:34:43;;;;;;;9.98;8.80;;;;;;;20.88;78.29;99412.72;1690543;84;21106;-46
2022/08/04 02:37:11;;;;;;;9.40;8.50;;;;;;;20.85;78.24;99414.97;1695406;84;21049;-46
2022/08/04 02:39:38;;;;;;;13.53;9.30;;;;;;;20.85;78.34;99423.23;1695209;84;21013;-46
2022/08/04 02:42:06;;;;;;;10.00;8.98;;;;;;;20.88;78.46;99419.61;1643319;84;21124;-46
2022/08/04 02:44:33;;;;;;;10.48;9.38;;;;;;;20.93;78.38;99421.86;1695292;84;21126;-46
2022/08/04 02:47:00;;;;;;;12.93;9.68;;;;;;;20.94;78.10;99413.17;1695075;84;21562;-46
2022/08/04 02:49:28;;;;;;;11.33;10.30;;;;;;;20.95;78.14;99417.49;1695108;84;21026;-46
2022/08/04 02:51:56;;;;;;;16.40;10.90;;;;;;;20.96;78.10;99413.51;1694976;84;21710;-46
2022/08/04 02:54:27;;;;;;;12.80;9.75;;;;;;;20.97;77.96;99414.29;1663320;84;20996;-46
2022/08/04 02:56:54;;;;;;;12.53;9.90;;;;;;;20.94;78.00;99410.42;1694979;84;21680;-46
2022/08/04 02:59:25;;;;;;;11.85;10.72;;;;;;;20.97;78.08;99406.02;1694993;84;21551;-46
2022/08/04 03:01:55;;;;;;;10.80;9.75;;;;;;;20.98;77.74;99408.36;1694927;84;20958;-46
2022/08/04 03:04:48;;;;;;;12.68;10.35;;;;;;;20.94;77.75;99406.28;1695891;83;21020;-46
2022/08/04 03:07:56;;;;;;;15.72;10.50;;;;;;;20.95;77.88;99409.23;1710022;83;21025;-46
2022/08/04 03:10:56;;;;;;;12.58;10.82;;;;;;;20.93;77.77;99411.63;1700723;84;21246;-46
2022/08/04 03:13:55;;;;;;;;;;;;;;;20.90;77.88;99406.97;1687108;85;20978;-46
2022/08/04 03:16:43;;;;;;;12.50;11.30;;;;;;;20.90;77.90;99411.11;1710278;83;20110;-46
2022/08/04 03:19:56;;;;;;;16.90;10.80;;;;;;;20.80;78.29;99406.61;1700772;84;21013;-46
2022/08/04 03:22:50;;;;;;;15.63;11.00;;;;;;;20.80;78.23;99405.23;1710352;83;21041;-46
2022/08/04 03:25:43;;;;;;;12.05;10.55;;;;;;;20.80;78.30;99407.38;1700807;84;21128;-46
2022/08/04 03:28:47;;;;;;;12.75;10.80;;;;;;;20.82;78.44;99411.84;1683388;85;20978;-46
2022/08/04 03:31:56;;;;;;;12.85;10.23;;;;;;;20.87;78.39;99407.81;1710486;83;21499;-46
2022/08/04 03:35:17;;;;;;;15.28;11.20;;;;;;;20.89;78.21;99404.04;1699402;84;21116;-46
2022/08/04 03:38:12;;;;;;;12.35;11.05;;;;;;;20.87;78.25;99405.66;1621058;88;21104;-46
2022/08/04 03:41:04;;;;;;;14.25;11.25;;;;;;;20.85;78.20;99401.19;1709508;83;21153;-46
2022/08/04 03:43:48;;;;;;;13.25;11.95;;;;;;;20.86;78.32;99399.39;1700521;84;21060;-46
2022/08/04 03:46:48;;;;;;;14.55;12.30;;;;;;;20.85;78.37;99407.48;1710003;83;20973;-46
2022/08/04 03:49:41;;;;;;;14.20;11.40;;;;;;;20.86;78.43;99413.17;1700746;84;21004;-46
2022/08/04 03:53:08;;;;;;;15.40;13.10;;;;;;;20.90;78.51;99419.38;1710372;83;21009;-46
2022/08/04 03:56:02;;;;;;;14.93;13.15;;;;;;;20.93;78.43;99410.24;1700685;84;21234;-46
2022/08/04 03:58:51;;;;;;;17.05;13.40;;;;;;;20.90;78.48;99415.24;1710234;83;20964;-46
2022/08/04 04:01:36;;;;;;;14.58;13.08;;;;;;;20.91;78.49;99418.78;1700835;84;20957;-46
2022/08/04 04:04:31;;;;;;;16.42;13.95;;;;;;;20.89;78.51;99417.81;1682342;85;21052;-47
2022/08/04 04:07:24;;;;;;;16.23;13.98;;;;;;;20.89;78.63;99419.20;1683451;85;21073;-46
2022/08/04 04:10:37;;;;;;;17.25;13.95;;;;;;;20.88;78.72;99423.15;1710263;83;21131;-46
2022/08/04 04:13:31;;;;;;;15.05;13.65;;;;;;;20.88;78.82;99425.12;1700256;84;20992;-47
2022/08/04 04:16:18;;;;;;;15.90;14.25;;;;;;;20.84;78.97;99425.21;1656265;86;21159;-46
2022/08/04 04:19:11;;;;;;;15.03;13.43;;;;;;;20.80;79.05;99420.38;1704431;83;21093;-46
2022/08/04 04:22:04;;;;;;;16.07;14.38;;;;;;;20.85;79.25;99429.52;1700363;84;21068;-46
2022/08/04 04:25:06;;;;;;;16.45;13.43;;;;;;;20.87;79.25;99425.72;1709966;83;21951;-46
2022/08/04 04:28:12;;;;;;;16.17;14.47;;;;;;;20.91;79.13;99427.05;1700560;84;21092;-46
2022/08/04 04:31:02;;;;;;;19.87;15.70;;;;;;;20.90;79.00;99429.62;1710180;83;21024;-47
2022/08/04 04:33:52;;;;;;;18.48;15.53;;;;;;;20.92;79.11;99427.20;1700631;84;21069;-46
2022/08/04 04:36:30;;;;;;;17.48;14.65;;;;;;;20.94;78.94;99433.07;1710051;83;21033;-47
2022/08/04 04:39:21;;;;;;;16.37;14.53;;;;;;;20.94;78.97;99429.72;1681512;85;21191;-46
2022/08/04 04:42:05;;;;;;;16.12;14.43;;;;;;;20.99;78.95;99427.83;1700429;84;21040;-46
2022/08/04 04:45:03;;;;;;;16.55;13.62;;;;;;;21.00;78.61;99434.12;1670827;85;21050;-46
2022/08/04 04:48:07;;;;;;;17.57;14.10;;;;;;;21.00;78.50;99430.77;1683119;85;21026;-46
2022/08/04 04:51:17;;;;;;;16.07;14.18;;;;;;;21.00;78.51;99438.26;1709650;83;21017;-46
2022/08/04 04:54:13;;;;;;;19.20;13.85;;;;;;;20.98;78.57;99438.67;1700815;84;21238;-46
2022/08/04 04:56:45;;;;;;;15.78;14.10;;;;;;;20.99;78.60;99434.72;1710306;83;21000;-46
2022/08/04 04:59:16;;;;;;;15.78;14.15;;;;;;;21.01;78.38;99430.17;1700872;84;21111;-46
2022/08/04 05:02:34;;;;;;;16.48;14.28;;;;;;;21.01;78.39;99424.03;1709189;83;20980;-46
2022/08/04 05:05:42;;;;;;;15.45;13.80;;;;;;;21.04;78.43;99427.33;1694937;83;21183;-47
2022/08/04 05:08:17;;;;;;;17.45;15.55;;;;;;;21.05;78.85;99427.50;1694915;84;21242;-46
2022/08/04 05:11:25;;;;;;;16.93;15.13;;;;;;;21.11;78.82;99430.50;1694630;84;21044;-47
2022/08/04 05:14:22;;;;;;;15.93;14.25;;;;;;;21.13;78.60;99430.30;1695034;84;21013;-47
2022/08/04 05:17:03;;;;;;;19.02;15.03;;;;;;;21.20;78.65;99432.88;1688212;84;21096;-46
2022/08/04 05:19:50;;;;;;;16.35;14.47;;;;;;;21.25;78.38;99443.39;1694918;84;21025;-46
2022/08/04 05:22:34;;;;;;;16.65;14.15;;;;;;;21.30;78.22;99445.48;1695245;84;21559;-46
2022/08/04 05:25:09;;;;;;;17.70;15.10;;;;;;;21.33;78.11;99450.92;1695096;84;21097;-46
2022/08/04 05:27:43;;;;;;;21.90;14.87;;;;;;;21.37;77.98;99441.95;1692370;84;21452;-46
2022/08/04 05:30:11;;;;;;;16.70;14.63;;;;;;;21.40;77.46;99447.20;1695008;84;21120;-46
2022/08/04 05:33:00;;;;;;;20.02;13.85;;;;;;;21.40;77.43;99448.58;1695442;84;21117;-46
2022/08/04 05:35:32;;;;;;;18.00;15.18;;;;;;;21.41;77.55;99447.38;1695460;84;22133;-46
2022/08/04 05:38:02;;;;;;;17.17;15.38;;;;;;;21.44;77.66;99452.05;1695208;83;21587;-46
2022/08/04 05:40:29;;;;;;;18.02;15.75;;;;;;;21.47;77.62;99447.04;1695418;84;21108;-46
2022/08/04 05:42:56;;;;;;;25.60;15.60;;;;;;;21.53;77.58;99449.46;1695335;84;21013;-47
2022/08/04 05:45:23;;;;;;;18.40;16.10;;;;;;;21.57;77.47;99450.93;1695314;84;21119;-46
2022/08/04 05:47:51;;;;;;;17.37;15.58;;;;;;;21.64;77.05;99452.72;1695310;84;21108;-47
2022/08/04 05:50:18;;;;;;;16.20;14.50;;;;;;;21.66;76.85;99455.84;1695130;84;20981;-46
2022/08/04 05:52:45;;;;;;;17.27;14.83;;;;;;;21.66;77.06;99457.22;1695167;84;21666;-46
2022/08/04 05:55:12;;;;;;;16.93;14.70;;;;;;;21.67;76.73;99454.63;1694987;84;21021;-46
2022/08/04 05:57:40;;;;;;;17.95;15.98;;;;;;;21.67;76.73;99462.91;1695082;84;21048;-46
2022/08/04 06:00:08;;;;;;;17.35;15.55;;;;;;;21.68;76.64;99452.05;1695232;84;21889;-46
2022/08/04 06:02:35;;;;;;;18.85;15.90;;;;;;;21.71;76.75;99458.67;1695565;84;21055;-46
2022/08/04 06:05:04;;;;;;;18.45;15.18;;;;;;;21.74;76.77;99464.10;1665739;83;21061;-46
2022/08/04 06:07:32;;;;;;;16.55;14.75;;;;;;;21.79;76.82;99455.90;1695266;84;21061;-46
2022/08/04 06:09:59;;;;;;;19.73;15.20;;;;;;;21.84;76.77;99460.30;1694926;84;21056;-46
2022/08/04 06:12:50;;;;;;;17.25;14.30;;;;;;;21.90;76.72;99464.09;1700121;84;21140;-46
2022/08/04 06:15:19;;;;;;;15.32;12.82;;;;;;;21.94;76.61;99463.42;1679028;85;21025;-46
2022/08/04 06:17:57;;;;;;;15.43;13.62;;;;;;;21.95;76.32;99464.98;1679059;85;21093;-43
2022/08/04 06:20:32;;;;;;;15.88;14.23;;;;;;;21.96;76.12;99465.77;1699551;84;21477;-42
2022/08/04 06:23:04;;;;;;;15.53;13.93;;;;;;;21.95;75.91;99466.97;1707229;83;21037;-43
2022/08/04 06:25:33;;;;;;;16.97;13.80;;;;;;;21.93;75.95;99463.25;1672873;84;21242;-43
2022/08/04 06:28:00;;;;;;;15.13;13.38;;;;;;;21.96;76.26;99467.92;1700573;84;21049;-43
2022/08/04 06:30:27;;;;;;;14.43;13.03;;;;;;;21.99;75.96;99473.17;1704414;84;20934;-43
2022/08/04 06:32:59;;;;;;;15.08;13.45;;;;;;;22.01;76.09;99469.38;1706872;83;21042;-43
2022/08/04 06:35:24;;;;;;;15.60;14.10;;;;;;;22.05;75.78;99472.82;1707250;84;21547;-43
2022/08/04 06:37:52;;;;;;;16.32;13.53;;;;;;;22.03;75.81;99473.24;1694389;84;21254;-43
2022/08/04 06:40:22;;;;;;;14.00;12.60;;;;;;;22.08;75.89;99471.94;1741819;82;20971;-42
2022/08/04 06:42:49;;;;;;;15.40;13.55;;;;;;;22.12;75.80;99469.11;1742068;82;20983;-42
2022/08/04 06:45:17;;;;;;;16.87;12.98;;;;;;;22.17;75.67;99474.10;1741518;82;21508;-42
2022/08/04 06:47:44;;;;;;;20.62;13.48;;;;;;;22.19;75.56;99475.20;1720898;82;21023;-42
2022/08/04 06:50:11;;;;;;;14.68;12.37;;;;;;;22.24;75.55;99475.28;1741980;82;21193;-42
2022/08/04 06:52:39;;;;;;;15.68;13.68;;;;;;;22.32;75.69;99469.13;1741641;82;20967;-42
2022/08/04 06:55:07;;;;;;;18.30;14.15;;;;;;;22.42;75.68;99471.42;1741950;82;20956;-42
2022/08/04 06:57:35;;;;;;;14.97;13.30;;;;;;;22.49;75.32;99477.55;1742278;82;21015;-42
2022/08/04 07:00:09;;;;;;;16.62;12.73;;;;;;;22.55;74.92;99468.13;1741857;82;21059;-42
2022/08/04 07:02:52;;;;;;;14.85;13.35;;;;;;;22.60;74.68;99474.49;1741945;82;21252;-42
2022/08/04 07:05:19;;;;;;;18.02;13.55;;;;;;;22.65;74.13;99469.03;1741793;82;21031;-43
2022/08/04 07:07:47;;;;;;;15.28;12.45;;;;;;;22.70;74.20;99472.06;1741858;82;21021;-42
2022/08/04 07:10:15;;;;;;;14.03;12.55;;;;;;;22.77;73.74;99469.08;1741989;82;21030;-42
2022/08/04 07:12:42;;;;;;;15.13;12.70;;;;;;;22.82;73.30;99474.07;1741911;82;21487;-42
2022/08/04 07:15:10;;;;;;;14.60;12.70;;;;;;;22.86;73.06;99469.81;1742156;82;21577;-42
2022/08/04 07:17:37;;;;;;;13.80;12.40;;;;;;;22.91;72.84;99468.66;1741902;82;20967;-42
2022/08/04 07:20:06;;;;;;;18.27;13.98;;;;;;;22.93;72.36;99469.02;1741752;82;20948;-42
2022/08/04 07:22:33;;;;;;;15.35;13.48;;;;;;;22.93;72.18;99471.78;1741703;82;20971;-42
2022/08/04 07:25:00;;;;;;;15.45;13.78;;;;;;;22.91;72.41;99472.81;1741852;82;20999;-42
2022/08/04 07:27:28;;;;;;;16.42;14.03;;;;;;;22.89;72.43;99465.58;1741905;82;21248;-42
2022/08/04 07:29:55;;;;;;;17.98;13.62;;;;;;;22.90;72.68;99471.25;1741765;82;20975;-42
2022/08/04 07:32:22;;;;;;;15.53;13.45;;;;;;;22.95;72.60;99477.63;1741966;82;20991;-42
2022/08/04 07:34:49;;;;;;;16.48;14.25;;;;;;;22.99;72.58;99474.00;1741759;82;21114;-42
2022/08/04 07:37:17;;;;;;;16.85;13.50;;;;;;;22.99;72.06;99475.37;1741972;82;21588;-42
2022/08/04 07:39:44;;;;;;;16.55;13.38;;;;;;;22.98;72.01;99469.67;1737082;82;21144;-42
2022/08/04 07:42:11;;;;;;;14.05;12.65;;;;;;;22.98;72.03;99476.59;1741838;82;20979;-42
2022/08/04 07:44:38;;;;;;;15.45;13.85;;;;;;;23.00;71.95;99471.38;1741806;82;21592;-42
2022/08/04 07:47:06;;;;;;;18.10;13.43;;;;;;;22.95;71.82;99466.56;1741855;82;21082;-42
2022/08/04 07:49:35;;;;;;;16.10;13.83;;;;;;;22.98;71.94;99472.44;1742407;82;21110;-42
2022/08/04 07:52:03;;;;;;;16.23;13.38;;;;;;;23.00;72.09;99468.61;1742950;82;21217;-42
2022/08/04 07:54:30;;;;;;;16.10;13.30;;;;;;;23.07;72.53;99472.56;1743348;82;20980;-42
2022/08/04 07:56:57;;;;;;;14.23;12.82;;;;;;;23.19;72.82;99462.13;1743279;82;21587;-42
2022/08/04 07:59:24;;;;;;;16.10;14.40;;;;;;;23.38;72.85;99466.66;1743504;81;20965;-42
2022/08/04 08:01:52;;;;;;;18.00;14.38;;;;;;;23.57;71.60;99469.83;1743228;82;21026;-42
2022/08/04 08:04:19;;;;;;;15.10;13.60;;;;;;;23.73;70.52;99472.45;1743433;81;21196;-42
2022/08/04 08:06:46;;;;;;;15.78;13.98;;;;;;;23.83;69.99;99472.71;1742530;81;21046;-42
2022/08/04 08:09:17;;;;;;;14.30;13.00;;;;;;;23.92;69.20;99473.41;1743065;82;20985;-42
2022/08/04 08:11:46;;;;;;;14.30;12.68;;;;;;;24.00;68.82;99460.88;1743196;82;20991;-42
2022/08/04 08:14:13;;;;;;;14.00;12.50;;;;;;;24.08;68.77;99473.26;1739519;82;21056;-42
2022/08/04 08:16:40;;;;;;;13.80;12.25;;;;;;;24.15;68.64;99470.86;1739605;82;21280;-42
2022/08/04 08:19:07;;;;;;;13.55;12.18;;;;;;;24.24;68.35;99467.59;1736304;82;20961;-42
2022/08/04 08:21:36;;;;;;;12.98;11.78;;;;;;;24.39;68.09;99467.09;1741019;82;20898;-42
2022/08/04 08:24:05;;;;;;;13.28;11.90;;;;;;;24.50;67.15;99468.23;1734997;82;21511;-42
2022/08/04 08:26:32;;;;;;;14.15;12.58;;;;;;;24.61;66.79;99474.17;1733806;82;21067;-42
2022/08/04 08:28:59;;;;;;;15.50;11.90;;;;;;;24.71;66.36;99472.84;1719846;82;21149;-42
2022/08/04 08:31:26;;;;;;;13.95;12.10;;;;;;;24.78;65.98;99467.83;1754964;80;20991;-42
2022/08/04 08:33:53;;;;;;;12.18;11.03;;;;;;;24.86;65.41;99472.48;1742146;82;21033;-42
2022/08/04 08:36:40;;;;;;;15.80;11.95;;;;;;;24.94;65.41;99472.39;1743438;82;21600;-42
2022/08/04 08:39:32;;;;;;;12.30;10.93;;;;;;;24.98;65.09;99467.51;1743481;82;21025;-42
2022/08/04 08:42:20;;;;;;;12.13;11.03;;;;;;;24.99;64.75;99467.64;1743356;81;21002;-42
2022/08/04 08:45:17;;;;;;;12.30;11.00;;;;;;;25.01;64.76;99467.97;1743099;82;20961;-42
2022/08/04 08:48:08;;;;;;;12.95;10.80;;;;;;;25.07;64.33;99470.33;1743072;81;21445;-42
2022/08/04 08:50:49;;;;;;;12.88;10.48;;;;;;;25.13;64.01;99457.38;1743398;81;21531;-43
2022/08/04 08:53:51;;;;;;;12.15;10.72;;;;;;;25.21;63.67;99455.13;1742458;82;20978;-42
2022/08/04 08:56:48;;;;;;;13.88;10.20;;;;;;;25.34;63.08;99455.17;1742500;82;21128;-43
2022/08/04 08:59:51;;;;;;;11.35;10.25;;;;;;;25.51;62.82;99452.28;1743370;82;21008;-42
2022/08/04 09:02:44;;;;;;;14.78;10.70;;;;;;;25.79;62.70;99455.17;1743291;82;20998;-42
2022/08/04 09:05:41;;;;;;;11.55;10.30;;;;;;;26.06;61.61;99450.25;1742758;82;21504;-43
2022/08/04 09:08:37;;;;;;;14.85;11.43;;;;;;;26.19;61.00;99453.67;1737070;81;21033;-43
2022/08/04 09:11:21;;;;;;;12.63;10.30;;;;;;;26.22;60.79;99456.94;1756821;81;22194;-42
2022/08/04 09:13:55;;;;;;;12.55;9.85;;;;;;;26.25;61.19;99453.22;1756344;81;21023;-43
2022/08/04 09:16:40;;;;;;;11.50;10.30;;;;;;;26.31;61.02;99447.97;1756660;81;20990;-43
2022/08/04 09:22:37;;;;;;;14.78;10.05;;;;;;;26.41;59.92;99444.57;1797149;79;21923;-42
2022/08/04 09:25:14;;;;;;;9.80;8.80;;;;;;;26.39;59.95;99447.80;1751168;81;21826;-43
2022/08/04 09:28:02;;;;;;;9.75;8.70;;;;;;;26.45;58.84;99440.23;1745761;82;21242;-43
2022/08/04 09:30:40;;;;;;;12.07;8.88;;;;;;;26.55;58.40;99439.77;1750868;81;21220;-43
2022/08/04 09:33:28;;;;;;;10.78;8.95;;;;;;;26.75;57.77;99432.31;1755592;81;21008;-43
2022/08/04 09:36:03;;;;;;;10.13;8.88;;;;;;;26.94;56.84;99429.65;1722576;83;21505;-43
2022/08/04 09:38:50;;;;;;;11.08;8.38;;;;;;;27.13;56.98;99437.30;1721525;83;21008;-43
2022/08/04 09:41:31;;;;;;;10.48;9.25;;;;;;;27.25;56.94;99439.88;1699713;84;22181;-43
2022/08/04 09:44:20;;;;;;;9.88;8.53;;;;;;;27.24;56.25;99443.92;1709810;84;21017;-43
2022/08/04 09:47:19;;;;;;;12.83;8.70;;;;;;;27.16;56.10;99444.09;1710079;83;21029;-43
2022/08/04 09:50:20;;;;;;;9.48;7.92;;;;;;;27.14;55.64;99441.02;1710136;83;21025;-43
2022/08/04 09:53:45;;;;;;;9.30;7.92;;;;;;;27.25;55.71;99438.48;1709939;83;21032;-43
2022/08/04 09:56:33;;;;;;;10.13;8.60;;;;;;;27.40;55.36;99441.34;1688798;84;21145;-43
2022/08/04 09:59:29;;;;;;;11.20;8.13;;;;;;;27.48;54.76;99440.40;1687821;85;21058;-43
2022/08/04 10:02:00;;;;;;;8.55;7.75;;;;;;;27.45;54.40;99441.36;1682404;84;21061;-43
2022/08/04 10:04:30;;;;;;;8.83;7.62;;;;;;;27.47;54.25;99439.63;1692403;84;20984;-43
2022/08/04 10:07:22;;;;;;;8.75;7.35;;;;;;;27.62;54.23;99435.55;1698042;83;21079;-43
2022/08/04 10:10:18;;;;;;;7.87;6.90;;;;;;;27.85;53.70;99427.80;1714597;83;21158;-43
2022/08/04 10:13:10;;;;;;;9.10;7.60;;;;;;;28.10;52.88;99424.52;1711283;83;20984;-42
2022/08/04 10:15:57;;;;;;;7.30;6.60;;;;;;;28.30;52.53;99428.72;1706326;83;21056;-43
2022/08/04 10:18:51;;;;;;;7.60;6.83;;;;;;;28.44;52.73;99423.16;1689257;84;21055;-43
2022/08/04 10:21:34;;;;;;;11.40;6.60;;;;;;;28.65;52.00;99425.44;1678683;83;21043;-43
2022/08/04 10:24:39;;;;;;;8.98;6.60;;;;;;;28.82;50.41;99420.92;1668299;85;21261;-43
2022/08/04 10:27:42;;;;;;;7.67;6.90;;;;;;;28.90;50.32;99423.46;1682564;85;21068;-46
2022/08/04 10:30:25;;;;;;;8.70;6.35;;;;;;;28.95;49.82;99418.59;1707650;84;21019;-43
2022/08/04 10:33:27;;;;;;;7.45;6.67;;;;;;;28.97;49.35;99419.52;1684982;85;21009;-46
2022/08/04 10:36:01;;;;;;;7.92;6.45;;;;;;;29.01;48.57;99412.34;1639339;85;21627;-43
2022/08/04 10:38:49;;;;;;;10.58;6.60;;;;;;;29.01;49.05;99403.95;1689084;85;21192;-43
2022/08/04 10:41:43;;;;;;;6.95;6.20;;;;;;;29.03;49.44;99410.61;1671176;85;21010;-43
2022/08/04 10:44:41;;;;;;;6.92;6.33;;;;;;;29.07;49.00;99400.63;1689096;84;21024;-43
2022/08/04 10:47:18;;;;;;;7.65;6.60;;;;;;;29.09;48.19;99410.08;1688752;85;20952;-43
2022/08/04 10:49:55;;;;;;;7.47;6.17;;;;;;;29.09;48.22;99407.28;1689640;85;21099;-43
2022/08/04 10:52:34;;;;;;;8.43;6.15;;;;;;;29.10;48.47;99403.84;1689455;85;21518;-43
2022/08/04 10:55:22;;;;;;;7.20;6.50;;;;;;;29.15;48.88;99403.16;1689297;85;21016;-43
2022/08/04 10:57:56;;;;;;;7.50;6.78;;;;;;;29.16;49.16;99410.28;1689313;85;20987;-43
2022/08/04 11:00:25;;;;;;;11.55;6.85;;;;;;;29.17;49.17;99409.03;1689174;85;21050;-43
2022/08/04 11:03:25;;;;;;;7.35;6.60;;;;;;;29.21;48.94;99411.00;1689356;85;21103;-43
2022/08/04 11:05:55;;;;;;;7.85;7.05;;;;;;;29.19;49.12;99402.36;1621801;88;21095;-43
2022/08/04 11:08:33;;;;;;;7.70;6.90;;;;;;;29.06;48.87;99404.67;1676176;85;21012;-43
2022/08/04 11:11:07;;;;;;;7.50;6.78;;;;;;;28.91;49.62;99402.68;1678593;85;21051;-43
2022/08/04 11:13:39;;;;;;;6.87;6.22;;;;;;;28.79;49.86;99405.16;1731861;82;21016;-43
2022/08/04 11:16:11;;;;;;;7.20;6.50;;;;;;;28.66;49.92;99402.50;1730006;82;21016;-43
2022/08/04 11:19:14;;;;;;;10.00;6.83;;;;;;;28.52;50.72;99406.18;1706906;84;21308;-43
2022/08/04 11:21:53;;;;;;;9.48;6.53;;;;;;;28.45;51.15;99402.39;1676684;84;21014;-44
2022/08/04 11:24:28;;;;;;;8.00;6.97;;;;;;;28.45;50.78;99404.41;1674917;84;21006;-42
2022/08/04 11:27:02;;;;;;;9.10;6.75;;;;;;;28.44;50.69;99400.84;1688800;84;21020;-42
2022/08/04 11:29:41;;;;;;;7.30;6.60;;;;;;;28.44;50.95;99397.29;1688918;84;21077;-42
2022/08/04 11:32:16;;;;;;;8.70;7.00;;;;;;;28.39;50.50;99392.38;1703388;84;21100;-42
2022/08/04 11:34:47;;;;;;;32.25;13.22;;;;;;;28.34;50.77;99397.23;1694178;84;21706;-45
2022/08/04 11:37:28;;;;;;;9.35;7.40;;;;;;;28.49;50.92;99391.81;1707846;83;20982;-45
2022/08/04 11:40:13;;;;;;;8.40;7.10;;;;;;;28.73;51.05;99397.31;1703038;83;21005;-45
2022/08/04 11:42:45;;;;;;;7.70;6.90;;;;;;;29.06;49.47;99394.91;1705877;83;21013;-45
2022/08/04 11:45:19;;;;;;;10.15;6.45;;;;;;;29.23;48.29;99390.35;1698266;84;21218;-45
2022/08/04 11:48:08;;;;;;;9.08;7.00;;;;;;;29.18;48.19;99389.02;1704237;83;21067;-45
2022/08/04 11:50:47;;;;;;;8.15;7.35;;;;;;;29.13;48.15;99386.91;1696634;84;21063;-45
2022/08/04 11:53:18;;;;;;;8.03;6.90;;;;;;;29.09;48.49;99379.99;1700722;84;21566;-45
2022/08/04 11:55:47;;;;;;;8.90;7.03;;;;;;;29.09;48.35;99374.41;1700417;84;21047;-45
2022/08/04 11:58:14;;;;;;;9.65;7.20;;;;;;;29.12;48.58;99379.78;1700407;84;21140;-45
2022/08/04 12:00:47;;;;;;;7.28;6.53;;;;;;;29.28;48.63;99366.70;1705370;83;21561;-45
2022/08/04 12:03:37;;;;;;;8.08;6.80;;;;;;;29.63;48.05;99365.88;1699396;84;21040;-45
2022/08/04 12:06:37;;;;;;;7.62;6.80;;;;;;;30.01;47.83;99364.86;1700740;84;21079;-45
2022/08/04 12:09:41;;;;;;;7.80;6.97;;;;;;;30.25;47.04;99373.75;1668941;85;21090;-45
2022/08/04 12:12:21;;;;;;;12.58;7.25;;;;;;;30.27;47.01;99376.80;1698716;83;21151;-45
2022/08/04 12:15:23;;;;;;;9.60;7.05;;;;;;;30.11;46.41;99377.42;1685727;84;21459;-45
2022/08/04 12:18:05;;;;;;;7.75;6.95;;;;;;;29.90;47.00;99378.70;1697603;83;20905;-45
2022/08/04 12:20:37;;;;;;;10.58;6.85;;;;;;;29.64;47.87;99368.20;1697645;84;21326;-45
2022/08/04 12:23:04;;;;;;;7.15;5.65;;;;;;;29.43;48.00;99363.11;1668297;85;21102;-45
2022/08/04 12:25:35;;;;;;;6.25;5.35;;;;;;;29.21;47.94;99364.30;1667680;85;21888;-45
2022/08/04 12:28:20;;;;;;;6.12;4.97;;;;;;;29.02;47.67;99373.41;1672174;85;21108;-45